Time;durP1;ratioP1;P1;durP2;ratioP2;P2;SDS_P1;SDS_P2;PMS_P1;PMS_P2;Temp;Humidity;BMP_temperature;BMP_pressure;BME280_temperature;BME280_humidity;BME280_pressure;Samples;Min_cycle;Max_cycle;Signal;HPM_P1;HPM_P2
2021/04/16 00:02:00;;;;;;;6.03;3.55;;;-0.30;99.90;;;;;;5014387;28;20065;-76
2021/04/16 00:04:26;;;;;;;6.35;3.60;;;-0.30;99.90;;;;;;5013154;28;20506;-75
2021/04/16 00:06:52;;;;;;;6.95;3.35;;;-0.30;99.90;;;;;;5014408;28;20022;-75
2021/04/16 00:09:17;;;;;;;5.53;3.40;;;-0.40;99.90;;;;;;5014372;28;20030;-75
2021/04/16 00:11:43;;;;;;;6.22;3.83;;;-0.40;99.90;;;;;;5014042;28;20484;-75
2021/04/16 00:14:11;;;;;;;5.93;3.40;;;-0.40;99.90;;;;;;5014340;28;20022;-75
2021/04/16 00:16:37;;;;;;;5.80;3.85;;;-0.40;99.90;;;;;;5012642;28;20389;-75
2021/04/16 00:19:03;;;;;;;6.35;3.42;;;-0.40;99.90;;;;;;5014333;28;20026;-78
2021/04/16 00:21:29;;;;;;;5.32;3.30;;;-0.40;99.90;;;;;;5014162;28;20092;-76
2021/04/16 00:23:55;;;;;;;6.63;3.97;;;-0.40;99.90;;;;;;5014127;28;20036;-75
2021/04/16 00:26:21;;;;;;;6.45;3.70;;;-0.50;99.90;;;;;;5012871;28;20457;-75
2021/04/16 00:28:47;;;;;;;6.05;3.50;;;-0.40;99.90;;;;;;5013989;28;20380;-76
2021/04/16 00:31:19;;;;;;;7.72;3.90;;;-0.50;99.90;;;;;;5013982;28;20022;-75
2021/04/16 00:33:46;;;;;;;7.28;4.00;;;-0.50;99.90;;;;;;5013745;28;20044;-75
2021/04/16 00:36:12;;;;;;;6.15;4.05;;;-0.50;99.90;;;;;;5012607;28;20089;-75
2021/04/16 00:38:38;;;;;;;6.53;3.80;;;-0.50;99.90;;;;;;5013366;28;20420;-75
2021/04/16 00:41:07;;;;;;;8.30;4.07;;;-0.50;99.90;;;;;;5013306;28;20026;-75
2021/04/16 00:43:35;;;;;;;7.68;4.10;;;-0.50;99.90;;;;;;5013793;28;20068;-75
2021/04/16 00:46:12;;;;;;;5.28;3.65;;;-0.50;99.90;;;;;;5013674;28;20057;-75
2021/04/16 00:48:46;;;;;;;4.80;3.53;;;-0.50;99.90;;;;;;5013746;28;20480;-75
2021/04/16 00:51:39;;;;;;;9.48;4.63;;;-0.60;99.90;;;;;;5013417;28;20366;-74
2021/04/16 00:54:11;;;;;;;6.30;3.45;;;-0.60;99.90;;;;;;5013701;28;20026;-74
2021/04/16 00:56:37;;;;;;;4.90;3.58;;;-0.70;99.90;;;;;;5013043;28;20050;-74
2021/04/16 00:59:03;;;;;;;6.90;4.22;;;-0.70;99.90;;;;;;5012139;28;20374;-74
2021/04/16 01:01:29;;;;;;;6.25;4.22;;;-0.70;99.90;;;;;;5011935;28;20487;-74
2021/04/16 01:03:55;;;;;;;7.03;4.20;;;-0.60;99.90;;;;;;5013470;28;20101;-75
2021/04/16 01:06:23;;;;;;;13.10;6.85;;;-0.60;99.90;;;;;;5013291;28;20481;-74
2021/04/16 01:08:49;;;;;;;11.30;6.10;;;-0.60;99.90;;;;;;5013095;28;20474;-75
2021/04/16 01:11:15;;;;;;;18.83;8.45;;;-0.60;99.90;;;;;;5013192;28;20072;-75
2021/04/16 01:13:44;;;;;;;20.73;9.70;;;-0.60;99.90;;;;;;5013230;28;20469;-76
2021/04/16 01:16:14;;;;;;;13.45;6.28;;;-0.60;99.90;;;;;;5011793;28;20029;-75
2021/04/16 01:18:44;;;;;;;13.73;6.57;;;-0.60;99.90;;;;;;5012870;28;20014;-75
2021/04/16 01:21:14;;;;;;;12.70;6.18;;;-0.70;99.90;;;;;;5011710;28;20033;-75
2021/04/16 01:23:49;;;;;;;11.32;5.30;;;-0.70;99.90;;;;;;5012989;28;20377;-74
2021/04/16 01:26:28;;;;;;;17.25;6.85;;;-0.70;99.90;;;;;;5013010;28;20071;-75
2021/04/16 01:28:56;;;;;;;15.48;6.05;;;-0.80;99.90;;;;;;5012696;28;20022;-74
2021/04/16 01:31:27;;;;;;;10.77;6.40;;;-0.90;99.90;;;;;;5012895;28;20044;-75
2021/04/16 01:33:53;;;;;;;13.35;6.53;;;-0.90;99.90;;;;;;5012841;28;20084;-74
2021/04/16 01:36:34;;;;;;;12.27;6.38;;;-0.90;99.90;;;;;;5012847;28;20486;-74
2021/04/16 01:39:03;;;;;;;11.27;5.32;;;-1.00;99.90;;;;;;5012702;28;20022;-75
2021/04/16 01:41:31;;;;;;;7.45;4.78;;;-0.90;99.90;;;;;;5012900;28;20041;-77
2021/04/16 01:44:00;;;;;;;9.35;5.57;;;-1.00;99.90;;;;;;5012715;28;20092;-75
2021/04/16 01:46:27;;;;;;;9.98;5.30;;;-1.00;99.90;;;;;;5012877;28;20083;-75
2021/04/16 01:48:59;;;;;;;8.75;4.90;;;-0.90;99.90;;;;;;5011313;28;20048;-75
2021/04/16 01:51:31;;;;;;;11.25;5.20;;;-1.00;99.90;;;;;;5011242;28;20090;-74
2021/04/16 01:54:17;;;;;;;7.32;4.80;;;-0.90;99.90;;;;;;5012778;28;20022;-75
2021/04/16 01:56:45;;;;;;;6.57;4.65;;;-0.90;99.90;;;;;;5011280;28;20523;-75
2021/04/16 01:59:21;;;;;;;6.93;4.80;;;-0.90;99.90;;;;;;5012485;28;20373;-75
2021/04/16 02:01:47;;;;;;;8.93;5.10;;;-0.80;99.90;;;;;;5012708;28;20111;-74
2021/04/16 02:04:14;;;;;;;8.88;4.28;;;-0.80;99.90;;;;;;5012727;28;20018;-75
2021/04/16 02:06:40;;;;;;;9.05;5.10;;;-0.90;99.90;;;;;;5012555;28;20076;-74
2021/04/16 02:09:09;;;;;;;9.90;5.35;;;-0.90;99.90;;;;;;5012316;28;20026;-75
2021/04/16 02:11:39;;;;;;;8.77;4.53;;;-0.90;99.90;;;;;;5012618;28;20018;-75
2021/04/16 02:14:07;;;;;;;7.80;5.00;;;-1.00;99.90;;;;;;5012189;28;20058;-76
2021/04/16 02:16:33;;;;;;;7.10;4.75;;;-1.00;99.90;;;;;;5011033;28;20033;-74
2021/04/16 02:18:59;;;;;;;6.40;4.00;;;-1.00;99.90;;;;;;5012566;28;20029;-75
2021/04/16 02:21:24;;;;;;;7.30;5.03;;;-0.90;99.90;;;;;;5011233;28;20589;-74
2021/04/16 02:23:50;;;;;;;9.88;5.55;;;-1.00;99.90;;;;;;5012175;28;20096;-76
2021/04/16 02:26:15;;;;;;;9.80;5.28;;;-1.10;99.90;;;;;;5011091;28;20108;-75
2021/04/16 02:28:41;;;;;;;8.40;5.32;;;-1.10;99.90;;;;;;5012106;28;20048;-76
2021/04/16 02:31:07;;;;;;;10.75;5.70;;;-1.10;99.90;;;;;;5012204;28;20026;-75
2021/04/16 02:33:33;;;;;;;8.57;5.78;;;-1.10;99.90;;;;;;5011074;28;20021;-76
2021/04/16 02:35:58;;;;;;;11.15;6.28;;;-1.10;99.90;;;;;;5012147;28;20041;-75
2021/04/16 02:38:24;;;;;;;9.82;6.32;;;-1.10;99.90;;;;;;5012078;28;20033;-76
2021/04/16 02:40:49;;;;;;;8.82;5.88;;;-1.00;99.90;;;;;;5012227;28;20079;-75
2021/04/16 02:43:15;;;;;;;10.05;5.97;;;-1.00;99.90;;;;;;5010981;28;20388;-75
2021/04/16 02:45:41;;;;;;;11.48;5.53;;;-1.00;99.90;;;;;;5012103;28;20026;-75
2021/04/16 02:48:07;;;;;;;10.35;6.13;;;-1.10;99.90;;;;;;5010706;28;20041;-75
2021/04/16 02:50:32;;;;;;;10.95;6.75;;;-1.10;99.90;;;;;;5012160;28;20377;-74
2021/04/16 02:52:58;;;;;;;10.45;6.15;;;-1.10;99.90;;;;;;5012196;28;20148;-74
2021/04/16 02:55:24;;;;;;;8.30;5.38;;;-1.10;99.90;;;;;;5011860;28;20060;-75
2021/04/16 02:57:50;;;;;;;11.93;6.32;;;-1.20;99.90;;;;;;5011940;28;20022;-74
2021/04/16 03:00:24;;;;;;;9.52;5.63;;;-1.20;99.90;;;;;;5012010;28;20025;-75
2021/04/16 03:02:50;;;;;;;10.63;6.53;;;-1.30;99.90;;;;;;5013100;28;20026;-75
2021/04/16 03:05:16;;;;;;;10.50;7.07;;;-1.40;99.90;;;;;;5014061;28;20389;-74
2021/04/16 03:07:42;;;;;;;11.73;6.72;;;-1.40;99.90;;;;;;5015532;28;20042;-74
2021/04/16 03:10:11;;;;;;;15.25;8.02;;;-1.40;99.90;;;;;;5014352;28;20026;-75
2021/04/16 03:12:36;;;;;;;14.68;9.85;;;-1.50;99.90;;;;;;5015381;28;20473;-75
2021/04/16 03:15:03;;;;;;;17.63;9.70;;;-1.50;99.90;;;;;;5013847;28;20040;-75
2021/04/16 03:17:29;;;;;;;12.55;7.82;;;-1.40;99.90;;;;;;5015248;28;20458;-77
2021/04/16 03:19:55;;;;;;;12.32;7.70;;;-1.50;99.90;;;;;;5015374;28;20080;-74
2021/04/16 03:22:20;;;;;;;14.70;9.07;;;-1.50;99.90;;;;;;5013938;28;20421;-74
2021/04/16 03:24:46;;;;;;;10.27;8.40;;;-1.50;99.90;;;;;;5013790;28;20121;-75
2021/04/16 03:27:12;;;;;;;14.52;7.90;;;-1.50;99.90;;;;;;5015083;28;20041;-75
2021/04/16 03:29:37;;;;;;;13.18;8.65;;;-1.50;99.90;;;;;;5015127;28;20029;-76
2021/04/16 03:32:03;;;;;;;16.73;7.95;;;-1.50;99.90;;;;;;5015047;28;20030;-75
2021/04/16 03:34:29;;;;;;;14.07;9.15;;;-1.40;99.90;;;;;;5015201;28;20041;-75
2021/04/16 03:36:55;;;;;;;12.82;8.15;;;-1.40;99.90;;;;;;5014871;28;20037;-75
2021/04/16 03:39:20;;;;;;;13.23;7.97;;;-1.40;99.90;;;;;;5015069;28;20025;-74
2021/04/16 03:41:46;;;;;;;11.95;8.55;;;-1.40;99.90;;;;;;5013693;28;20454;-75
2021/04/16 03:44:11;;;;;;;14.23;8.07;;;-1.40;99.90;;;;;;5013584;28;20030;-76
2021/04/16 03:46:37;;;;;;;13.65;8.05;;;-1.40;99.90;;;;;;5014951;28;20034;-74
2021/04/16 03:49:03;;;;;;;13.52;7.40;;;-1.40;99.90;;;;;;5014535;28;20076;-74
2021/04/16 03:51:29;;;;;;;14.48;7.57;;;-1.40;99.90;;;;;;5014683;28;20030;-75
2021/04/16 03:53:56;;;;;;;14.57;7.35;;;-1.30;99.90;;;;;;5013561;28;20042;-74
2021/04/16 03:56:22;;;;;;;14.27;7.40;;;-1.30;99.90;;;;;;5014368;28;20603;-76
2021/04/16 03:58:48;;;;;;;14.23;8.13;;;-1.30;99.90;;;;;;5014453;28;20030;-74
2021/04/16 04:01:16;;;;;;;15.95;9.82;;;-1.40;99.90;;;;;;5013349;28;20383;-75
2021/04/16 04:03:41;;;;;;;14.77;7.90;;;-1.40;99.90;;;;;;5014425;28;20028;-75
2021/04/16 04:06:07;;;;;;;11.93;7.65;;;-1.40;99.90;;;;;;5014338;28;20093;-75
2021/04/16 04:08:34;;;;;;;12.98;7.35;;;-1.50;99.90;;;;;;5014279;28;20029;-75
2021/04/16 04:11:00;;;;;;;13.20;8.90;;;-1.50;99.90;;;;;;5014606;28;20121;-76
2021/04/16 04:13:26;;;;;;;20.52;13.40;;;-1.50;99.90;;;;;;5014094;28;20095;-75
2021/04/16 04:15:51;;;;;;;11.68;7.97;;;-1.60;99.90;;;;;;5014353;28;20030;-76
2021/04/16 04:18:17;;;;;;;13.60;7.18;;;-1.60;99.90;;;;;;5013967;28;20441;-75
2021/04/16 04:20:43;;;;;;;10.07;6.32;;;-1.60;99.90;;;;;;5014040;28;20029;-75
2021/04/16 04:23:09;;;;;;;12.00;7.22;;;-1.60;99.90;;;;;;5012995;28;20112;-75
2021/04/16 04:25:35;;;;;;;12.40;7.05;;;-1.60;99.90;;;;;;5012753;28;20022;-77
2021/04/16 04:28:04;;;;;;;10.40;7.72;;;-1.60;99.90;;;;;;5014020;28;20527;-75
2021/04/16 04:30:34;;;;;;;9.65;6.57;;;-1.60;99.90;;;;;;5012706;28;20076;-75
2021/04/16 04:32:59;;;;;;;9.45;6.22;;;-0.40;99.90;;;;;;5013874;28;20037;-75
2021/04/16 04:35:26;;;;;;;9.45;6.28;;;-0.60;99.90;;;;;;5013821;28;20038;-74
2021/04/16 04:37:52;;;;;;;13.25;8.70;;;-0.90;99.90;;;;;;5013457;28;20427;-74
2021/04/16 04:40:20;;;;;;;14.63;9.90;;;-1.00;99.90;;;;;;5013590;28;20026;-74
2021/04/16 04:42:46;;;;;;;14.30;9.07;;;-1.10;99.90;;;;;;5013659;28;20022;-74
2021/04/16 04:45:13;;;;;;;11.82;7.18;;;-1.20;99.90;;;;;;5013372;28;20033;-74
2021/04/16 04:47:39;;;;;;;14.25;8.98;;;-1.10;99.90;;;;;;5013518;28;20038;-74
2021/04/16 04:50:08;;;;;;;18.10;9.20;;;-1.10;99.90;;;;;;5012125;28;20511;-75
2021/04/16 04:52:36;;;;;;;15.68;9.18;;;-1.00;99.90;;;;;;5015959;28;20030;-74
2021/04/16 04:55:06;;;;;;;17.20;9.10;;;-1.00;99.90;;;;;;5014157;28;20073;-74
2021/04/16 04:57:31;;;;;;;13.32;9.65;;;-1.00;99.90;;;;;;5013349;28;20020;-74
2021/04/16 04:59:57;;;;;;;18.50;9.75;;;-1.00;99.90;;;;;;5014833;28;20089;-75
2021/04/16 05:02:24;;;;;;;12.27;8.40;;;-0.90;99.90;;;;;;5014776;28;20034;-75
2021/04/16 05:04:50;;;;;;;18.75;9.93;;;-0.90;99.90;;;;;;5013467;28;20478;-75
2021/04/16 05:07:16;;;;;;;17.58;8.95;;;-0.80;99.90;;;;;;5011960;28;20053;-74
2021/04/16 05:09:42;;;;;;;12.15;8.30;;;-0.80;99.90;;;;;;5012574;28;20449;-75
2021/04/16 05:12:08;;;;;;;14.23;8.55;;;-0.70;99.90;;;;;;5013395;28;20526;-74
2021/04/16 05:14:34;;;;;;;15.23;8.80;;;-0.70;99.90;;;;;;5013209;28;20105;-74
2021/04/16 05:17:00;;;;;;;20.35;9.90;;;-0.60;99.90;;;;;;5013020;28;20124;-75
2021/04/16 05:19:25;;;;;;;20.25;10.27;;;-0.60;99.90;;;;;;5013094;28;20450;-75
2021/04/16 05:21:54;;;;;;;22.20;11.73;;;-0.40;99.90;;;;;;5013023;28;20477;-74
2021/04/16 05:24:20;;;;;;;15.32;9.70;;;-0.40;99.90;;;;;;5012934;28;20484;-75
2021/04/16 05:26:46;;;;;;;20.52;10.80;;;-0.40;99.90;;;;;;5012641;28;20117;-75
2021/04/16 05:29:12;;;;;;;25.55;11.70;;;-0.40;99.90;;;;;;5011757;28;20488;-75
2021/04/16 05:31:37;;;;;;;18.73;11.70;;;-0.30;99.90;;;;;;5012962;28;20026;-75
2021/04/16 05:34:04;;;;;;;21.17;13.18;;;-0.20;99.90;;;;;;5011711;28;20458;-76
2021/04/16 05:36:30;;;;;;;23.92;13.80;;;0.00;99.90;;;;;;5012873;28;20049;-75
2021/04/16 05:38:55;;;;;;;22.50;13.90;;;-0.10;99.90;;;;;;5011515;28;20434;-74
2021/04/16 05:41:22;;;;;;;24.52;14.18;;;0.00;99.90;;;;;;5012962;28;20037;-75
2021/04/16 05:43:48;;;;;;;23.23;15.18;;;0.10;99.90;;;;;;5022602;28;20033;-75
2021/04/16 05:46:14;;;;;;;28.10;16.45;;;0.20;99.90;;;;;;5032691;28;20039;-73
2021/04/16 05:48:40;;;;;;;26.98;15.93;;;0.30;99.90;;;;;;5023677;28;20034;-74
2021/04/16 05:51:06;;;;;;;28.13;17.25;;;0.30;99.90;;;;;;5030352;28;20044;-75
2021/04/16 05:53:32;;;;;;;25.67;17.38;;;0.40;99.90;;;;;;5031034;28;20033;-74
2021/04/16 05:55:58;;;;;;;26.23;15.68;;;0.60;99.90;;;;;;5030977;28;20107;-74
2021/04/16 05:58:24;;;;;;;27.92;16.50;;;0.60;99.90;;;;;;5021765;28;20034;-75
2021/04/16 06:00:49;;;;;;;25.92;16.15;;;0.70;99.90;;;;;;5026974;28;20523;-75
2021/04/16 06:03:18;;;;;;;27.85;16.33;;;0.80;99.90;;;;;;5022392;28;20026;-74
2021/04/16 06:05:43;;;;;;;25.13;16.20;;;1.00;99.90;;;;;;5012557;28;20026;-74
2021/04/16 06:08:10;;;;;;;29.98;17.27;;;1.10;99.90;;;;;;5012888;28;20385;-74
2021/04/16 06:10:36;;;;;;;23.40;15.65;;;1.20;99.60;;;;;;5021274;28;20491;-74
2021/04/16 06:13:02;;;;;;;24.23;15.38;;;1.40;99.50;;;;;;5020792;28;20041;-75
2021/04/16 06:15:29;;;;;;;22.48;14.25;;;1.40;99.40;;;;;;5021178;28;20141;-76
2021/04/16 06:17:56;;;;;;;21.30;14.27;;;1.50;99.10;;;;;;5012658;28;20037;-77
2021/04/16 06:20:23;;;;;;;26.10;15.20;;;1.70;98.90;;;;;;5012219;28;20030;-74
2021/04/16 06:22:51;;;;;;;23.67;14.48;;;1.80;98.80;;;;;;5010980;28;20392;-75
2021/04/16 06:25:20;;;;;;;25.20;15.65;;;1.80;98.50;;;;;;5012034;28;20481;-75
2021/04/16 06:27:46;;;;;;;27.77;15.90;;;1.90;98.50;;;;;;5011439;28;20436;-75
2021/04/16 06:30:12;;;;;;;20.10;14.77;;;2.00;98.30;;;;;;5011790;28;20029;-76
2021/04/16 06:32:39;;;;;;;21.48;13.43;;;2.10;98.30;;;;;;5010565;28;20036;-76
2021/04/16 06:35:07;;;;;;;20.08;12.07;;;5.20;99.90;;;;;;5012742;28;20028;-77
2021/04/16 06:37:32;;;;;;;19.75;12.52;;;6.40;91.30;;;;;;5028865;28;20536;-76
2021/04/16 06:39:58;;;;;;;24.90;13.13;;;6.20;82.90;;;;;;5035940;28;20064;-84
2021/04/16 06:42:30;;;;;;;21.20;12.82;;;5.70;85.50;;;;;;5035222;28;20477;-77
2021/04/16 06:44:59;;;;;;;16.17;12.05;;;5.10;88.20;;;;;;5036138;28;20080;-79
2021/04/16 06:47:56;;;;;;;19.52;12.27;;;4.70;91.30;;;;;;5036157;28;20025;-80
2021/04/16 06:50:25;;;;;;;23.88;13.05;;;4.20;92.70;;;;;;5020160;28;20389;-79
2021/04/16 06:53:01;;;;;;;19.15;12.82;;;4.30;93.90;;;;;;5015700;28;20120;-79
2021/04/16 06:55:26;;;;;;;20.23;13.00;;;4.10;93.40;;;;;;5014400;28;20046;-77
2021/04/16 06:58:03;;;;;;;20.35;12.70;;;3.90;93.30;;;;;;5024401;28;20032;-79
2021/04/16 07:00:47;;;;;;;18.88;12.52;;;4.00;93.80;;;;;;5033830;28;20044;-75
2021/04/16 07:03:34;;;;;;;18.90;11.35;;;4.10;93.00;;;;;;5035314;28;20029;-80
2021/04/16 07:06:24;;;;;;;19.48;10.77;;;4.70;99.90;;;;;;5034578;28;20083;-75
2021/04/16 07:09:00;;;;;;;15.27;10.60;;;6.50;96.40;;;;;;5020819;28;20030;-75
2021/04/16 07:11:31;;;;;;;18.90;9.73;;;7.60;87.20;;;;;;5015418;28;20036;-76
2021/04/16 07:13:59;;;;;;;15.85;10.68;;;8.10;80.60;;;;;;5013931;28;20404;-79
2021/04/16 07:16:25;;;;;;;16.48;9.93;;;8.30;75.80;;;;;;5025513;28;20041;-78
2021/04/16 07:19:00;;;;;;;13.27;9.52;;;8.50;72.50;;;;;;5013071;28;20037;-76
2021/04/16 07:21:26;;;;;;;13.95;8.07;;;8.60;78.00;;;;;;5014871;28;20022;-75
2021/04/16 07:24:03;;;;;;;12.77;8.68;;;8.40;67.90;;;;;;5015169;28;20097;-75
2021/04/16 07:26:40;;;;;;;18.75;8.95;;;7.80;71.20;;;;;;5013683;28;20030;-75
2021/04/16 07:29:08;;;;;;;12.98;8.45;;;7.40;73.70;;;;;;5029585;28;20026;-76
2021/04/16 07:31:41;;;;;;;8.43;5.22;;;7.10;73.00;;;;;;5014933;28;20483;-75
2021/04/16 07:34:34;;;;;;;7.78;4.70;;;7.00;60.70;;;;;;5032360;28;20377;-75
2021/04/16 07:37:11;;;;;;;8.10;4.90;;;7.00;60.30;;;;;;5032548;28;20430;-75
2021/04/16 07:39:43;;;;;;;6.10;4.85;;;6.90;58.20;;;;;;5020656;28;20042;-75
2021/04/16 07:42:09;;;;;;;7.93;4.88;;;7.00;62.40;;;;;;5034878;28;20100;-75
2021/04/16 07:44:39;;;;;;;5.78;4.30;;;7.00;60.90;;;;;;5034712;28;20488;-75
2021/04/16 07:47:11;;;;;;;6.93;5.22;;;6.90;59.00;;;;;;5013558;28;20022;-76
2021/04/16 07:49:38;;;;;;;7.88;4.82;;;7.10;59.40;;;;;;5025691;28;20024;-75
2021/04/16 07:52:35;;;;;;;5.95;4.22;;;7.30;58.40;;;;;;5033083;28;20041;-76
2021/04/16 07:55:13;;;;;;;9.30;3.53;;;7.30;56.80;;;;;;5014555;28;20547;-74
2021/04/16 07:57:42;;;;;;;5.45;3.50;;;7.30;55.20;;;;;;5014777;28;20108;-76
2021/04/16 08:00:26;;;;;;;4.55;3.33;;;7.30;54.60;;;;;;5014420;28;20034;-76
2021/04/16 08:03:03;;;;;;;5.10;3.20;;;7.40;54.40;;;;;;5023392;28;20049;-78
2021/04/16 08:05:33;;;;;;;6.95;3.38;;;7.50;53.70;;;;;;5033520;28;20029;-74
2021/04/16 08:08:12;;;;;;;4.65;3.35;;;7.50;55.20;;;;;;5033030;28;20096;-74
2021/04/16 08:10:42;;;;;;;5.32;3.40;;;7.70;53.60;;;;;;5024639;28;20495;-74
2021/04/16 08:13:19;;;;;;;4.75;3.58;;;8.10;53.40;;;;;;5032810;28;20021;-74
2021/04/16 08:15:46;;;;;;;8.68;4.65;;;8.40;52.50;;;;;;5039384;28;20079;-74
2021/04/16 08:18:24;;;;;;;7.45;3.97;;;8.30;52.70;;;;;;5033165;28;20079;-74
2021/04/16 08:21:06;;;;;;;6.35;5.50;;;8.50;52.50;;;;;;5020769;28;20034;-74
2021/04/16 08:23:59;;;;;;;4.25;3.55;;;8.60;49.70;;;;;;5013550;28;20017;-74
2021/04/16 08:26:30;;;;;;;7.55;6.20;;;8.80;50.60;;;;;;5013638;28;20022;-74
2021/04/16 08:29:06;;;;;;;6.05;3.63;;;8.80;50.00;;;;;;5031463;28;20030;-76
2021/04/16 08:31:52;;;;;;;;;;;8.90;49.80;;;;;;5033046;28;20044;-78
2021/04/16 08:34:28;;;;;;;9.02;5.40;;;8.90;49.70;;;;;;5013539;28;19906;-77
2021/04/16 08:36:54;;;;;;;4.07;3.50;;;8.90;49.80;;;;;;5028630;28;20034;-77
2021/04/16 08:39:41;;;;;;;5.38;4.05;;;8.90;49.20;;;;;;5013403;28;20036;-75
2021/04/16 08:42:16;;;;;;;5.10;3.65;;;8.90;48.90;;;;;;5013406;28;20382;-75
2021/04/16 08:44:47;;;;;;;;;;;8.90;48.50;;;;;;5012999;28;20018;-76
2021/04/16 08:47:27;;;;;;;4.50;4.10;;;9.10;48.60;;;;;;5013235;28;20355;-77
2021/04/16 08:49:54;;;;;;;5.55;3.30;;;9.10;45.50;;;;;;5015164;28;20026;-75
2021/04/16 08:52:25;;;;;;;4.88;2.95;;;9.00;45.90;;;;;;5013619;28;20022;-77
2021/04/16 08:54:53;;;;;;;3.80;2.78;;;8.90;44.90;;;;;;5028895;28;20076;-76
2021/04/16 08:57:27;;;;;;;13.40;12.00;;;8.90;45.20;;;;;;5031599;28;20040;-79
2021/04/16 09:00:04;;;;;;;6.75;5.78;;;8.80;46.60;;;;;;5015422;28;20061;-78
2021/04/16 09:02:37;;;;;;;25.85;23.13;;;8.90;45.60;;;;;;5015702;28;20069;-79
2021/04/16 09:05:12;;;;;;;4.50;2.60;;;8.90;45.30;;;;;;5012482;28;20034;-77
2021/04/16 09:07:39;;;;;;;13.73;11.67;;;8.80;44.40;;;;;;5019263;28;20507;-77
2021/04/16 09:10:27;;;;;;;3.60;2.80;;;8.90;45.20;;;;;;5020433;28;20029;-79
2021/04/16 09:12:58;;;;;;;2.65;2.45;;;9.10;45.50;;;;;;5027781;28;20025;-76
2021/04/16 09:15:50;;;;;;;4.30;3.15;;;9.20;45.90;;;;;;5015788;28;20034;-78
2021/04/16 09:18:28;;;;;;;4.55;2.80;;;9.20;44.60;;;;;;5017457;28;20389;-79
2021/04/16 09:20:54;;;;;;;4.82;3.25;;;9.20;44.30;;;;;;5017346;28;20026;-76
2021/04/16 09:23:40;;;;;;;5.05;3.00;;;9.30;44.50;;;;;;5011546;28;20421;-75
2021/04/16 09:26:09;;;;;;;5.32;3.83;;;9.20;44.00;;;;;;5030914;28;20752;-76
2021/04/16 09:28:55;;;;;;;4.50;2.95;;;9.20;47.50;;;;;;5026769;28;20370;-77
2021/04/16 09:31:26;;;;;;;5.07;3.15;;;9.10;43.60;;;;;;5012106;28;20022;-77
2021/04/16 09:34:15;;;;;;;3.75;3.35;;;9.20;44.00;;;;;;5027986;28;20025;-78
2021/04/16 09:36:44;;;;;;;4.38;2.70;;;9.40;45.00;;;;;;5031719;28;20072;-75
2021/04/16 09:39:29;;;;;;;3.38;2.97;;;9.60;44.90;;;;;;5031493;28;20024;-75
2021/04/16 09:41:56;;;;;;;4.32;2.88;;;9.40;44.00;;;;;;5039613;28;20064;-74
2021/04/16 09:44:27;;;;;;;4.55;2.88;;;9.30;45.50;;;;;;5015925;28;20491;-77
2021/04/16 09:47:04;;;;;;;12.88;4.22;;;9.40;44.80;;;;;;5023695;28;20037;-79
2021/04/16 09:49:58;;;;;;;4.22;2.67;;;9.50;49.90;;;;;;5018100;28;20030;-79
2021/04/16 09:52:26;;;;;;;6.90;5.40;;;9.70;46.00;;;;;;5024095;28;20037;-84
2021/04/16 09:54:53;;;;;;;3.97;3.30;;;9.90;45.00;;;;;;5035640;28;20044;-83
2021/04/16 09:57:43;;;;;;;4.15;2.70;;;9.90;44.60;;;;;;5034341;28;20044;-80
2021/04/16 10:00:55;;;;;;;3.50;2.53;;;10.00;42.50;;;;;;5013807;28;20030;-78
2021/04/16 10:03:32;;;;;;;2.75;2.33;;;9.60;43.20;;;;;;5026521;28;20465;-79
2021/04/16 10:06:12;;;;;;;3.60;2.80;;;9.70;42.90;;;;;;5010808;28;20109;-79
2021/04/16 10:08:38;;;;;;;4.32;2.72;;;9.60;43.20;;;;;;5010516;28;20040;-81
2021/04/16 10:11:06;;;;;;;4.50;2.63;;;9.60;44.80;;;;;;5010767;28;20026;-79
2021/04/16 10:13:36;;;;;;;4.82;2.30;;;9.70;45.00;;;;;;5022634;28;20033;-78
2021/04/16 10:16:14;;;;;;;3.30;2.60;;;9.80;44.60;;;;;;5015173;28;20037;-78
2021/04/16 10:18:41;;;;;;;3.80;2.42;;;9.90;42.90;;;;;;5015742;28;20373;-80
2021/04/16 10:21:20;;;;;;;3.88;3.20;;;10.00;42.40;;;;;;5026393;28;20025;-79
2021/04/16 10:23:49;;;;;;;5.72;2.90;;;10.10;43.00;;;;;;5031582;28;20014;-79
2021/04/16 10:51:23;;;;;;;4.07;2.60;;;10.70;42.40;;;;;;5025066;28;20028;-80
2021/04/16 12:39:00;;;;;;;2.70;2.17;;;11.40;39.50;;;;;;5020574;28;20041;-75
2021/04/16 12:41:30;;;;;;;3.47;2.13;;;11.30;42.80;;;;;;5022982;28;20021;-78
2021/04/16 12:43:57;;;;;;;7.68;2.30;;;11.10;40.90;;;;;;5020226;28;20032;-78
2021/04/16 12:46:28;;;;;;;4.22;2.00;;;11.10;40.70;;;;;;5022068;28;20477;-79
2021/04/16 12:48:53;;;;;;;3.08;2.13;;;11.10;39.40;;;;;;5022321;28;20025;-79
2021/04/16 12:51:19;;;;;;;3.58;2.00;;;11.00;39.30;;;;;;5014167;28;20034;-78
2021/04/16 12:53:45;;;;;;;5.82;4.22;;;11.10;40.80;;;;;;5020730;28;20025;-79
2021/04/16 12:56:19;;;;;;;38.97;25.50;;;11.20;40.80;;;;;;5021650;28;20119;-79
2021/04/16 12:58:46;;;;;;;2.17;1.95;;;11.30;40.90;;;;;;5014632;28;20080;-79
2021/04/16 13:01:28;;;;;;;4.13;2.00;;;11.30;39.00;;;;;;5013229;28;20484;-78
2021/04/16 13:03:55;;;;;;;2.90;2.28;;;11.40;39.70;;;;;;5017305;28;20041;-79
2021/04/16 13:06:27;;;;;;;5.28;2.38;;;11.10;39.40;;;;;;5020351;28;20021;-79
2021/04/16 13:08:53;;;;;;;4.55;1.83;;;11.10;40.70;;;;;;5020492;28;20473;-79
2021/04/16 13:11:21;;;;;;;5.45;2.03;;;11.10;40.70;;;;;;5012177;28;20060;-81
2021/04/16 13:13:47;;;;;;;2.40;1.70;;;11.20;39.90;;;;;;5016355;28;20021;-80
2021/04/16 13:16:13;;;;;;;2.58;1.85;;;11.10;39.10;;;;;;5030335;28;20120;-80
2021/04/16 13:18:46;;;;;;;3.60;2.47;;;11.10;39.60;;;;;;5013238;28;20385;-82
2021/04/16 13:21:21;;;;;;;5.32;3.83;;;11.30;40.50;;;;;;5023531;28;20080;-79
2021/04/16 13:23:47;;;;;;;3.17;2.85;;;11.30;39.80;;;;;;5021886;28;20029;-78
2021/04/16 13:26:13;;;;;;;2.42;1.80;;;11.20;39.70;;;;;;5019638;28;20048;-79
2021/04/16 13:28:38;;;;;;;6.05;2.33;;;11.40;40.30;;;;;;5024125;28;20029;-82
2021/04/16 13:31:04;;;;;;;3.30;2.33;;;11.30;39.80;;;;;;5039888;28;20035;-78
2021/04/16 13:33:34;;;;;;;4.65;3.90;;;11.30;39.20;;;;;;5023139;28;20029;-79
2021/04/16 13:36:00;;;;;;;3.08;2.20;;;11.30;39.40;;;;;;5029234;28;20033;-80
2021/04/16 13:38:29;;;;;;;2.38;1.80;;;11.40;38.90;;;;;;5011820;28;20037;-79
2021/04/16 13:40:56;;;;;;;2.15;1.90;;;11.30;38.80;;;;;;5019856;28;20036;-79
2021/04/16 13:43:23;;;;;;;3.47;2.03;;;11.40;42.20;;;;;;5031373;28;20040;-79
2021/04/16 13:45:49;;;;;;;3.47;2.25;;;11.30;39.30;;;;;;5016185;28;20018;-79
2021/04/16 13:48:15;;;;;;;3.30;1.90;;;11.40;41.80;;;;;;5012638;28;20060;-79
2021/04/16 13:50:42;;;;;;;7.47;4.47;;;11.60;40.60;;;;;;5012625;28;20033;-79
2021/04/16 13:53:08;;;;;;;12.57;8.10;;;11.60;38.60;;;;;;5020351;28;20520;-79
2021/04/16 13:55:34;;;;;;;3.90;3.03;;;11.70;38.70;;;;;;5026526;28;20182;-79
2021/04/16 13:58:01;;;;;;;8.70;6.15;;;11.60;37.90;;;;;;5035150;28;20050;-79
2021/04/16 14:00:29;;;;;;;3.95;2.33;;;11.50;38.30;;;;;;5012934;28;20029;-78
2021/04/16 14:03:20;;;;;;;2.05;1.83;;;11.60;41.60;;;;;;5025601;28;20444;-81
2021/04/16 14:05:53;;;;;;;2.00;1.77;;;11.70;38.50;;;;;;5019152;28;20033;-80
2021/04/16 14:08:34;;;;;;;5.53;4.22;;;11.60;38.60;;;;;;5017201;28;20507;-80
2021/04/16 14:11:01;;;;;;;2.92;1.70;;;11.60;38.50;;;;;;5019289;28;20029;-78
2021/04/16 14:13:28;;;;;;;5.07;4.68;;;11.70;38.80;;;;;;5028072;28;20100;-75
2021/04/16 14:15:56;;;;;;;3.20;2.20;;;11.70;40.30;;;;;;5012124;28;20421;-78
2021/04/16 14:18:33;;;;;;;3.33;2.60;;;11.70;38.70;;;;;;5017795;28;20022;-87
2021/04/16 14:21:01;;;;;;;4.45;2.00;;;11.80;39.50;;;;;;5039552;28;20373;-87
2021/04/16 14:23:27;;;;;;;8.93;6.20;;;11.90;39.80;;;;;;5030883;28;20026;-87
2021/04/16 14:25:53;;;;;;;4.72;3.17;;;11.70;38.10;;;;;;5032071;28;20125;-87
2021/04/16 14:28:21;;;;;;;4.93;2.00;;;11.60;38.90;;;;;;5028315;28;20089;-86
2021/04/16 14:30:47;;;;;;;8.77;4.70;;;11.50;40.20;;;;;;5035123;28;20029;-89
2021/04/16 14:33:21;;;;;;;1.98;1.70;;;11.50;40.30;;;;;;5029000;28;20036;-85
2021/04/16 14:35:47;;;;;;;2.97;2.08;;;11.60;38.90;;;;;;5030371;28;20366;-87
2021/04/16 14:38:12;;;;;;;2.55;1.90;;;11.40;39.30;;;;;;5020258;28;20048;-88
2021/04/16 14:40:38;;;;;;;2.60;1.92;;;11.30;39.60;;;;;;5034704;28;20120;-88
2021/04/16 14:43:06;;;;;;;2.53;1.48;;;11.30;40.70;;;;;;5035052;28;20123;-87
2021/04/16 14:45:35;;;;;;;3.17;2.08;;;11.40;40.00;;;;;;5020795;28;20125;-87
2021/04/16 14:48:02;;;;;;;3.53;1.70;;;11.20;39.70;;;;;;5020710;28;20028;-86
2021/04/16 14:50:29;;;;;;;3.20;1.88;;;11.30;40.40;;;;;;5029385;28;20033;-84
2021/04/16 14:52:59;;;;;;;56.15;17.05;;;11.40;39.90;;;;;;5019853;28;20108;-85
2021/04/16 14:55:30;;;;;;;5.60;1.90;;;11.60;40.00;;;;;;5028616;28;20496;-86
2021/04/16 14:57:58;;;;;;;20.20;8.32;;;11.60;41.90;;;;;;5018911;28;20034;-86
2021/04/16 15:00:26;;;;;;;21.23;8.57;;;11.50;39.20;;;;;;5025182;28;20022;-85
2021/04/16 15:02:52;;;;;;;5.90;3.55;;;11.70;46.60;;;;;;5036321;28;20033;-87
2021/04/16 15:05:19;;;;;;;2.97;1.83;;;11.60;39.50;;;;;;5037111;28;20046;-84
2021/04/16 15:07:57;;;;;;;4.15;1.60;;;11.70;39.00;;;;;;5039797;28;20095;-85
2021/04/16 15:10:29;;;;;;;3.70;2.45;;;11.50;39.70;;;;;;5027837;28;20030;-85